sensor_id;sensor_type;location;lat;lon;timestamp;pressure;altitude;pressure_sealevel;temperature;humidity
58243;BME280;50118;53.232;8.252;2024-03-23T00:55:27;100723.97;;;4.30;100.00
58243;BME280;50118;53.232;8.252;2024-03-23T00:57:52;100717.13;;;4.27;100.00
58243;BME280;50118;53.232;8.252;2024-03-23T01:00:18;100716.47;;;4.24;100.00
58243;BME280;50118;53.232;8.252;2024-03-23T01:02:43;100696.34;;;4.23;100.00
58243;BME280;50118;53.232;8.252;2024-03-23T01:05:09;100707.09;;;4.20;100.00
58243;BME280;50118;53.232;8.252;2024-03-23T01:07:34;100691.28;;;4.20;100.00
58243;BME280;50118;53.232;8.252;2024-03-23T01:10:00;100699.19;;;4.20;100.00
58243;BME280;50118;53.232;8.252;2024-03-23T01:12:25;100689.69;;;4.17;100.00
58243;BME280;50118;53.232;8.252;2024-03-23T01:14:51;100695.06;;;4.16;100.00
58243;BME280;50118;53.232;8.252;2024-03-23T01:17:16;100696.00;;;4.15;100.00
58243;BME280;50118;53.232;8.252;2024-03-23T01:19:42;100680.94;;;4.17;100.00
58243;BME280;50118;53.232;8.252;2024-03-23T01:22:07;100690.75;;;4.15;100.00
58243;BME280;50118;53.232;8.252;2024-03-23T01:24:35;100677.75;;;4.11;100.00
58243;BME280;50118;53.232;8.252;2024-03-23T01:27:01;100679.25;;;4.16;100.00
58243;BME280;50118;53.232;8.252;2024-03-23T01:29:26;100667.00;;;4.15;100.00
58243;BME280;50118;53.232;8.252;2024-03-23T01:31:52;100675.84;;;4.14;100.00
58243;BME280;50118;53.232;8.252;2024-03-23T01:34:17;100680.28;;;4.13;100.00
58243;BME280;50118;53.232;8.252;2024-03-23T01:36:43;100673.97;;;4.16;100.00
58243;BME280;50118;53.232;8.252;2024-03-23T01:39:08;100670.59;;;4.14;100.00
58243;BME280;50118;53.232;8.252;2024-03-23T01:41:37;100662.69;;;4.14;100.00
58243;BME280;50118;53.232;8.252;2024-03-23T01:44:05;100661.53;;;4.18;100.00
58243;BME280;50118;53.232;8.252;2024-03-23T01:46:32;100654.56;;;4.17;100.00
58243;BME280;50118;53.232;8.252;2024-03-23T01:48:58;100650.03;;;4.19;100.00
58243;BME280;50118;53.232;8.252;2024-03-23T01:51:24;100644.13;;;4.15;100.00
58243;BME280;50118;53.232;8.252;2024-03-23T01:53:50;100653.09;;;4.13;100.00
58243;BME280;50118;53.232;8.252;2024-03-23T01:56:16;100651.19;;;4.15;100.00
58243;BME280;50118;53.232;8.252;2024-03-23T01:58:41;100649.50;;;4.14;100.00
58243;BME280;50118;53.232;8.252;2024-03-23T02:01:07;100634.34;;;4.17;100.00
58243;BME280;50118;53.232;8.252;2024-03-23T02:03:32;100643.28;;;4.15;100.00
58243;BME280;50118;53.232;8.252;2024-03-23T02:05:58;100633.03;;;4.10;100.00
58243;BME280;50118;53.232;8.252;2024-03-23T02:08:24;100637.69;;;4.06;100.00
58243;BME280;50118;53.232;8.252;2024-03-23T02:10:50;100639.41;;;4.07;100.00
58243;BME280;50118;53.232;8.252;2024-03-23T02:13:17;100629.06;;;4.04;100.00
58243;BME280;50118;53.232;8.252;2024-03-23T02:15:43;100630.75;;;4.05;100.00
58243;BME280;50118;53.232;8.252;2024-03-23T02:18:10;100632.31;;;4.08;100.00
58243;BME280;50118;53.232;8.252;2024-03-23T02:20:36;100628.44;;;4.01;100.00
58243;BME280;50118;53.232;8.252;2024-03-23T02:23:03;100627.59;;;4.00;100.00
58243;BME280;50118;53.232;8.252;2024-03-23T02:25:30;100621.16;;;4.04;100.00
58243;BME280;50118;53.232;8.252;2024-03-23T02:27:56;100623.16;;;4.01;100.00
58243;BME280;50118;53.232;8.252;2024-03-23T02:30:24;100619.78;;;3.99;100.00
58243;BME280;50118;53.232;8.252;2024-03-23T02:32:49;100603.34;;;3.95;100.00
58243;BME280;50118;53.232;8.252;2024-03-23T02:35:15;100603.34;;;3.95;100.00
58243;BME280;50118;53.232;8.252;2024-03-23T02:37:40;100595.97;;;4.00;100.00
58243;BME280;50118;53.232;8.252;2024-03-23T02:40:06;100583.72;;;3.99;100.00
58243;BME280;50118;53.232;8.252;2024-03-23T02:42:32;100587.81;;;4.03;100.00
58243;BME280;50118;53.232;8.252;2024-03-23T02:44:59;100578.25;;;4.02;100.00
58243;BME280;50118;53.232;8.252;2024-03-23T02:47:24;100577.72;;;3.97;100.00
58243;BME280;50118;53.232;8.252;2024-03-23T02:49:50;100575.28;;;3.94;100.00
58243;BME280;50118;53.232;8.252;2024-03-23T02:52:15;100569.50;;;3.89;100.00
58243;BME280;50118;53.232;8.252;2024-03-23T02:54:41;100570.44;;;3.88;100.00
58243;BME280;50118;53.232;8.252;2024-03-23T02:57:10;100567.47;;;3.80;100.00
58243;BME280;50118;53.232;8.252;2024-03-23T02:59:35;100566.03;;;3.76;100.00
58243;BME280;50118;53.232;8.252;2024-03-23T03:02:01;100565.19;;;3.75;100.00
58243;BME280;50118;53.232;8.252;2024-03-23T03:04:26;100555.06;;;3.69;100.00
58243;BME280;50118;53.232;8.252;2024-03-23T03:06:52;100548.72;;;3.59;100.00
58243;BME280;50118;53.232;8.252;2024-03-23T03:09:18;100548.00;;;3.57;100.00
58243;BME280;50118;53.232;8.252;2024-03-23T03:11:43;100546.19;;;3.57;100.00
58243;BME280;50118;53.232;8.252;2024-03-23T03:14:08;100547.28;;;3.54;100.00
58243;BME280;50118;53.232;8.252;2024-03-23T03:16:34;100550.84;;;3.53;100.00
58243;BME280;50118;53.232;8.252;2024-03-23T03:19:00;100551.47;;;3.57;100.00
58243;BME280;50118;53.232;8.252;2024-03-23T03:21:26;100548.09;;;3.55;100.00
58243;BME280;50118;53.232;8.252;2024-03-23T03:23:52;100546.41;;;3.54;100.00
58243;BME280;50118;53.232;8.252;2024-03-23T03:26:17;100539.25;;;3.56;100.00
58243;BME280;50118;53.232;8.252;2024-03-23T03:28:43;100526.63;;;3.61;100.00
58243;BME280;50118;53.232;8.252;2024-03-23T03:31:14;100527.03;;;3.55;100.00
58243;BME280;50118;53.232;8.252;2024-03-23T03:33:40;100525.56;;;3.51;100.00
58243;BME280;50118;53.232;8.252;2024-03-23T03:36:05;100539.16;;;3.45;100.00
58243;BME280;50118;53.232;8.252;2024-03-23T03:38:31;100545.25;;;3.45;100.00
58243;BME280;50118;53.232;8.252;2024-03-23T03:40:56;100533.16;;;3.43;100.00
58243;BME280;50118;53.232;8.252;2024-03-23T03:43:24;100524.28;;;3.44;100.00
58243;BME280;50118;53.232;8.252;2024-03-23T03:45:53;100519.25;;;3.41;100.00
58243;BME280;50118;53.232;8.252;2024-03-23T03:48:19;100519.56;;;3.36;100.00
58243;BME280;50118;53.232;8.252;2024-03-23T03:50:45;100513.31;;;3.37;100.00
58243;BME280;50118;53.232;8.252;2024-03-23T03:53:10;100516.09;;;3.35;100.00
58243;BME280;50118;53.232;8.252;2024-03-23T03:55:36;100510.06;;;3.33;100.00
58243;BME280;50118;53.232;8.252;2024-03-23T03:58:02;100503.63;;;3.25;100.00
58243;BME280;50118;53.232;8.252;2024-03-23T04:00:27;100510.78;;;3.23;100.00
58243;BME280;50118;53.232;8.252;2024-03-23T04:02:53;100512.25;;;3.14;100.00
58243;BME280;50118;53.232;8.252;2024-03-23T04:05:19;100509.28;;;3.06;100.00
58243;BME280;50118;53.232;8.252;2024-03-23T04:07:45;100508.47;;;3.05;100.00
58243;BME280;50118;53.232;8.252;2024-03-23T04:10:11;100512.47;;;3.11;100.00
58243;BME280;50118;53.232;8.252;2024-03-23T04:12:37;100517.09;;;3.07;100.00
58243;BME280;50118;53.232;8.252;2024-03-23T04:15:03;100516.66;;;3.01;100.00
58243;BME280;50118;53.232;8.252;2024-03-23T04:17:30;100515.38;;;2.93;100.00
58243;BME280;50118;53.232;8.252;2024-03-23T04:19:58;100499.16;;;2.99;100.00
58243;BME280;50118;53.232;8.252;2024-03-23T04:22:24;100503.06;;;2.94;100.00
58243;BME280;50118;53.232;8.252;2024-03-23T04:24:55;100506.94;;;2.88;100.00
58243;BME280;50118;53.232;8.252;2024-03-23T04:27:21;100502.63;;;2.87;100.00
58243;BME280;50118;53.232;8.252;2024-03-23T04:29:48;100507.97;;;2.86;100.00
58243;BME280;50118;53.232;8.252;2024-03-23T04:32:14;100509.22;;;2.80;100.00
58243;BME280;50118;53.232;8.252;2024-03-23T04:34:40;100511.88;;;2.80;100.00
58243;BME280;50118;53.232;8.252;2024-03-23T04:37:06;100507.63;;;2.77;100.00
58243;BME280;50118;53.232;8.252;2024-03-23T04:39:33;100501.00;;;2.72;100.00
58243;BME280;50118;53.232;8.252;2024-03-23T04:41:58;100489.84;;;2.68;100.00
58243;BME280;50118;53.232;8.252;2024-03-23T04:44:24;100497.28;;;2.61;100.00
58243;BME280;50118;53.232;8.252;2024-03-23T04:46:49;100487.91;;;2.57;100.00
58243;BME280;50118;53.232;8.252;2024-03-23T04:49:15;100496.75;;;2.56;100.00
58243;BME280;50118;53.232;8.252;2024-03-23T04:51:40;100492.31;;;2.57;100.00
58243;BME280;50118;53.232;8.252;2024-03-23T04:54:11;100487.47;;;2.51;100.00
58243;BME280;50118;53.232;8.252;2024-03-23T04:56:37;100479.50;;;2.52;100.00
58243;BME280;50118;53.232;8.252;2024-03-23T04:59:02;100477.16;;;2.48;100.00
58243;BME280;50118;53.232;8.252;2024-03-23T05:01:32;100471.06;;;2.47;100.00
58243;BME280;50118;53.232;8.252;2024-03-23T05:03:58;100462.41;;;2.45;100.00
58243;BME280;50118;53.232;8.252;2024-03-23T05:06:24;100469.56;;;2.43;100.00
58243;BME280;50118;53.232;8.252;2024-03-23T05:08:51;100480.25;;;2.40;100.00
58243;BME280;50118;53.232;8.252;2024-03-23T05:11:16;100465.09;;;2.31;100.00
58243;BME280;50118;53.232;8.252;2024-03-23T05:13:42;100466.97;;;2.29;100.00
58243;BME280;50118;53.232;8.252;2024-03-23T05:16:08;100466.97;;;2.29;100.00
58243;BME280;50118;53.232;8.252;2024-03-23T05:18:34;100468.88;;;2.27;100.00
58243;BME280;50118;53.232;8.252;2024-03-23T05:21:00;100456.56;;;2.27;100.00
58243;BME280;50118;53.232;8.252;2024-03-23T05:23:26;100463.19;;;2.33;100.00
58243;BME280;50118;53.232;8.252;2024-03-23T05:25:51;100463.41;;;2.30;100.00
58243;BME280;50118;53.232;8.252;2024-03-23T05:28:18;100463.19;;;2.33;100.00
58243;BME280;50118;53.232;8.252;2024-03-23T05:30:43;100455.50;;;2.30;100.00
58243;BME280;50118;53.232;8.252;2024-03-23T05:33:09;100453.84;;;2.29;100.00
58243;BME280;50118;53.232;8.252;2024-03-23T05:35:34;100456.66;;;2.26;100.00
58243;BME280;50118;53.232;8.252;2024-03-23T05:38:00;100453.84;;;2.29;100.00
58243;BME280;50118;53.232;8.252;2024-03-23T05:40:26;100451.41;;;2.26;100.00
58243;BME280;50118;53.232;8.252;2024-03-23T05:42:52;100448.22;;;2.20;100.00
58243;BME280;50118;53.232;8.252;2024-03-23T05:45:21;100446.78;;;2.29;100.00
58243;BME280;50118;53.232;8.252;2024-03-23T05:47:48;100436.28;;;2.29;100.00
58243;BME280;50118;53.232;8.252;2024-03-23T05:50:14;100446.41;;;2.35;100.00
58243;BME280;50118;53.232;8.252;2024-03-23T05:52:40;100448.94;;;2.37;100.00
58243;BME280;50118;53.232;8.252;2024-03-23T05:55:06;100446.09;;;2.40;100.00
58243;BME280;50118;53.232;8.252;2024-03-23T05:57:31;100452.75;;;2.46;100.00
58243;BME280;50118;53.232;8.252;2024-03-23T05:59:57;100455.81;;;2.52;100.00
58243;BME280;50118;53.232;8.252;2024-03-23T06:02:24;100450.88;;;2.60;100.00
58243;BME280;50118;53.232;8.252;2024-03-23T06:04:49;100452.81;;;2.71;100.00
58243;BME280;50118;53.232;8.252;2024-03-23T06:07:15;100444.94;;;2.84;100.00
58243;BME280;50118;53.232;8.252;2024-03-23T06:09:41;100452.03;;;2.96;100.00
58243;BME280;50118;53.232;8.252;2024-03-23T06:12:07;100442.34;;;3.10;100.00
58243;BME280;50118;53.232;8.252;2024-03-23T06:14:34;100450.56;;;3.18;100.00
58243;BME280;50118;53.232;8.252;2024-03-23T06:17:00;100446.03;;;3.46;100.00
58243;BME280;50118;53.232;8.252;2024-03-23T06:19:27;100445.38;;;3.55;100.00
58243;BME280;50118;53.232;8.252;2024-03-23T06:21:53;100449.69;;;3.69;100.00
58243;BME280;50118;53.232;8.252;2024-03-23T06:24:24;100454.53;;;3.75;100.00
58243;BME280;50118;53.232;8.252;2024-03-23T06:26:49;100452.31;;;3.82;100.00
58243;BME280;50118;53.232;8.252;2024-03-23T06:29:15;100450.41;;;3.84;100.00
58243;BME280;50118;53.232;8.252;2024-03-23T06:31:40;100460.38;;;4.04;100.00
58243;BME280;50118;53.232;8.252;2024-03-23T06:34:06;100457.56;;;4.19;100.00
58243;BME280;50118;53.232;8.252;2024-03-23T06:36:31;100453.06;;;4.56;100.00
58243;BME280;50118;53.232;8.252;2024-03-23T06:38:58;100462.31;;;4.86;100.00
58243;BME280;50118;53.232;8.252;2024-03-23T06:41:24;100465.88;;;5.09;100.00
58243;BME280;50118;53.232;8.252;2024-03-23T06:43:49;100465.03;;;5.20;100.00
58243;BME280;50118;53.232;8.252;2024-03-23T06:46:15;100477.78;;;5.37;100.00
58243;BME280;50118;53.232;8.252;2024-03-23T06:48:40;100474.19;;;5.50;100.00
58243;BME280;50118;53.232;8.252;2024-03-23T06:51:06;100478.53;;;5.51;100.00
58243;BME280;50118;53.232;8.252;2024-03-23T06:53:32;100472.41;;;6.07;100.00
58243;BME280;50118;53.232;8.252;2024-03-23T06:55:57;100478.06;;;5.79;100.00
58243;BME280;50118;53.232;8.252;2024-03-23T06:58:24;100471.44;;;6.08;100.00
58243;BME280;50118;53.232;8.252;2024-03-23T07:00:50;100461.88;;;6.50;100.00
58243;BME280;50118;53.232;8.252;2024-03-23T07:03:20;100464.53;;;6.71;100.00
58243;BME280;50118;53.232;8.252;2024-03-23T07:05:46;100460.72;;;7.06;100.00
58243;BME280;50118;53.232;8.252;2024-03-23T07:08:12;100459.81;;;6.75;100.00
58243;BME280;50118;53.232;8.252;2024-03-23T07:10:40;100462.88;;;7.13;100.00
58243;BME280;50118;53.232;8.252;2024-03-23T07:13:06;100466.44;;;7.54;100.00
58243;BME280;50118;53.232;8.252;2024-03-23T07:15:32;100467.38;;;8.14;100.00
58243;BME280;50118;53.232;8.252;2024-03-23T07:17:58;100460.22;;;8.05;100.00
58243;BME280;50118;53.232;8.252;2024-03-23T07:20:23;100461.59;;;8.59;100.00
58243;BME280;50118;53.232;8.252;2024-03-23T07:22:49;100465.88;;;9.19;100.00
58243;BME280;50118;53.232;8.252;2024-03-23T07:25:14;100461.91;;;9.43;100.00
58243;BME280;50118;53.232;8.252;2024-03-23T07:27:40;100451.72;;;9.76;100.00
58243;BME280;50118;53.232;8.252;2024-03-23T07:30:06;100449.53;;;9.61;100.00
58243;BME280;50118;53.232;8.252;2024-03-23T07:32:32;100458.50;;;9.03;100.00
58243;BME280;50118;53.232;8.252;2024-03-23T07:34:57;100459.31;;;9.98;100.00
58243;BME280;50118;53.232;8.252;2024-03-23T07:37:23;100451.47;;;9.31;100.00
58243;BME280;50118;53.232;8.252;2024-03-23T07:39:48;100453.59;;;9.93;100.00
58243;BME280;50118;53.232;8.252;2024-03-23T07:42:14;100449.16;;;9.84;100.00
58243;BME280;50118;53.232;8.252;2024-03-23T07:44:39;100445.94;;;10.54;100.00
58243;BME280;50118;53.232;8.252;2024-03-23T07:47:06;100446.78;;;11.16;100.00
58243;BME280;50118;53.232;8.252;2024-03-23T07:49:32;100448.47;;;10.37;100.00
58243;BME280;50118;53.232;8.252;2024-03-23T07:51:57;100451.78;;;11.37;100.00
58243;BME280;50118;53.232;8.252;2024-03-23T07:54:23;100456.59;;;11.68;100.00
58243;BME280;50118;53.232;8.252;2024-03-23T07:56:48;100449.50;;;11.51;100.00
58243;BME280;50118;53.232;8.252;2024-03-23T07:59:14;100441.88;;;11.30;100.00
58243;BME280;50118;53.232;8.252;2024-03-23T08:01:39;100453.00;;;9.99;100.00
58243;BME280;50118;53.232;8.252;2024-03-23T08:04:05;100449.53;;;10.62;100.00
58243;BME280;50118;53.232;8.252;2024-03-23T08:06:31;100448.97;;;9.67;100.00
58243;BME280;50118;53.232;8.252;2024-03-23T08:08:57;100457.66;;;9.87;100.00
58243;BME280;50118;53.232;8.252;2024-03-23T08:11:26;100450.66;;;10.60;100.00
58243;BME280;50118;53.232;8.252;2024-03-23T08:13:52;100444.41;;;10.05;100.00
58243;BME280;50118;53.232;8.252;2024-03-23T08:16:18;100445.13;;;9.80;100.00
58243;BME280;50118;53.232;8.252;2024-03-23T08:18:43;100430.69;;;10.28;100.00
58243;BME280;50118;53.232;8.252;2024-03-23T08:21:09;100435.72;;;10.31;100.00
58243;BME280;50118;53.232;8.252;2024-03-23T08:23:35;100440.19;;;10.40;100.00
58243;BME280;50118;53.232;8.252;2024-03-23T08:26:08;100445.38;;;9.49;100.00
58243;BME280;50118;53.232;8.252;2024-03-23T08:28:35;100433.50;;;9.81;100.00
58243;BME280;50118;53.232;8.252;2024-03-23T08:31:05;100437.03;;;9.34;100.00
58243;BME280;50118;53.232;8.252;2024-03-23T08:33:31;100433.00;;;9.67;100.00
58243;BME280;50118;53.232;8.252;2024-03-23T08:35:58;100445.31;;;9.68;100.00
58243;BME280;50118;53.232;8.252;2024-03-23T08:38:24;100432.94;;;8.73;100.00
58243;BME280;50118;53.232;8.252;2024-03-23T08:41:03;100445.50;;;9.00;100.00
58243;BME280;50118;53.232;8.252;2024-03-23T08:43:30;100434.34;;;8.48;100.00
58243;BME280;50118;53.232;8.252;2024-03-23T08:46:06;100434.78;;;8.82;100.00
58243;BME280;50118;53.232;8.252;2024-03-23T08:48:35;100437.00;;;8.77;100.00
58243;BME280;50118;53.232;8.252;2024-03-23T08:51:01;100428.38;;;9.22;100.00
58243;BME280;50118;53.232;8.252;2024-03-23T08:53:28;100425.06;;;9.01;100.00
58243;BME280;50118;53.232;8.252;2024-03-23T08:55:55;100427.69;;;9.20;100.00
58243;BME280;50118;53.232;8.252;2024-03-23T08:58:22;100419.56;;;9.31;100.00
58243;BME280;50118;53.232;8.252;2024-03-23T09:00:49;100423.84;;;9.42;100.00
58243;BME280;50118;53.232;8.252;2024-03-23T09:03:15;100431.41;;;8.80;100.00
58243;BME280;50118;53.232;8.252;2024-03-23T09:05:40;100418.00;;;8.72;100.00
58243;BME280;50118;53.232;8.252;2024-03-23T09:08:06;100423.06;;;8.05;100.00
58243;BME280;50118;53.232;8.252;2024-03-23T09:10:37;100417.50;;;8.08;100.00
58243;BME280;50118;53.232;8.252;2024-03-23T09:13:03;100422.56;;;8.21;100.00
58243;BME280;50118;53.232;8.252;2024-03-23T09:15:28;100417.13;;;7.72;100.00
58243;BME280;50118;53.232;8.252;2024-03-23T09:17:54;100410.00;;;8.33;100.00
58243;BME280;50118;53.232;8.252;2024-03-23T09:20:19;100410.25;;;9.08;100.00
58243;BME280;50118;53.232;8.252;2024-03-23T09:22:45;100410.53;;;9.05;100.00
58243;BME280;50118;53.232;8.252;2024-03-23T09:25:10;100411.88;;;9.28;100.00
58243;BME280;50118;53.232;8.252;2024-03-23T09:27:36;100398.56;;;9.94;100.00
58243;BME280;50118;53.232;8.252;2024-03-23T09:30:01;100408.66;;;10.54;100.00
58243;BME280;50118;53.232;8.252;2024-03-23T09:32:27;100409.25;;;10.65;100.00
58243;BME280;50118;53.232;8.252;2024-03-23T09:34:52;100400.25;;;10.13;100.00
58243;BME280;50118;53.232;8.252;2024-03-23T09:37:18;100398.22;;;10.06;100.00
58243;BME280;50118;53.232;8.252;2024-03-23T09:39:43;100402.56;;;10.43;100.00
58243;BME280;50118;53.232;8.252;2024-03-23T09:42:09;100405.47;;;10.32;100.00
58243;BME280;50118;53.232;8.252;2024-03-23T09:44:35;100404.22;;;10.08;100.00
58243;BME280;50118;53.232;8.252;2024-03-23T09:47:01;100405.16;;;11.15;100.00
58243;BME280;50118;53.232;8.252;2024-03-23T09:49:27;100393.25;;;10.83;99.32
58243;BME280;50118;53.232;8.252;2024-03-23T09:51:52;100404.16;;;10.18;100.00
58243;BME280;50118;53.232;8.252;2024-03-23T09:54:20;100413.25;;;10.16;100.00
58243;BME280;50118;53.232;8.252;2024-03-23T09:56:47;100407.06;;;9.97;100.00
58243;BME280;50118;53.232;8.252;2024-03-23T09:59:12;100412.94;;;9.45;99.91
58243;BME280;50118;53.232;8.252;2024-03-23T10:01:38;100415.47;;;9.47;100.00
58243;BME280;50118;53.232;8.252;2024-03-23T10:04:03;100411.66;;;9.02;100.00
58243;BME280;50118;53.232;8.252;2024-03-23T10:06:29;100408.81;;;9.23;100.00
58243;BME280;50118;53.232;8.252;2024-03-23T10:08:54;100400.72;;;9.52;100.00
58243;BME280;50118;53.232;8.252;2024-03-23T10:11:20;100397.38;;;9.78;96.05
58243;BME280;50118;53.232;8.252;2024-03-23T10:13:46;100391.28;;;10.14;92.00
58243;BME280;50118;53.232;8.252;2024-03-23T10:16:21;100389.66;;;9.85;97.01
58243;BME280;50118;53.232;8.252;2024-03-23T10:18:48;100394.91;;;10.40;94.29
58243;BME280;50118;53.232;8.252;2024-03-23T10:21:15;100391.50;;;10.02;93.09
58243;BME280;50118;53.232;8.252;2024-03-23T10:23:44;100387.91;;;9.76;95.26
58243;BME280;50118;53.232;8.252;2024-03-23T10:26:23;100380.84;;;9.84;95.68
58243;BME280;50118;53.232;8.252;2024-03-23T10:31:20;100378.47;;;9.81;99.30
58243;BME280;50118;53.232;8.252;2024-03-23T10:33:46;100397.97;;;9.44;100.00
58243;BME280;50118;53.232;8.252;2024-03-23T10:36:12;100398.16;;;8.76;100.00
58243;BME280;50118;53.232;8.252;2024-03-23T10:38:43;100411.06;;;8.01;100.00
58243;BME280;50118;53.232;8.252;2024-03-23T10:41:09;100401.75;;;7.04;100.00
58243;BME280;50118;53.232;8.252;2024-03-23T10:43:38;100392.19;;;7.44;100.00
58243;BME280;50118;53.232;8.252;2024-03-23T10:46:04;100392.03;;;7.76;100.00
58243;BME280;50118;53.232;8.252;2024-03-23T10:48:31;100397.06;;;7.70;100.00
58243;BME280;50118;53.232;8.252;2024-03-23T10:50:57;100384.41;;;7.42;100.00
58243;BME280;50118;53.232;8.252;2024-03-23T10:53:25;100384.03;;;7.26;100.00
58243;BME280;50118;53.232;8.252;2024-03-23T10:55:51;100383.13;;;7.87;100.00
58243;BME280;50118;53.232;8.252;2024-03-23T10:58:27;100380.38;;;8.37;100.00
58243;BME280;50118;53.232;8.252;2024-03-23T11:00:54;100380.94;;;8.41;100.00
58243;BME280;50118;53.232;8.252;2024-03-23T11:03:36;100368.94;;;8.37;100.00
58243;BME280;50118;53.232;8.252;2024-03-23T11:06:02;100376.75;;;8.87;100.00
58243;BME280;50118;53.232;8.252;2024-03-23T11:08:36;100366.97;;;8.68;100.00
58243;BME280;50118;53.232;8.252;2024-03-23T11:11:21;100376.50;;;8.71;100.00
58243;BME280;50118;53.232;8.252;2024-03-23T11:13:54;100375.63;;;8.21;100.00
58243;BME280;50118;53.232;8.252;2024-03-23T11:16:24;100373.41;;;8.46;100.00
58243;BME280;50118;53.232;8.252;2024-03-23T11:18:51;100373.22;;;8.96;100.00
58243;BME280;50118;53.232;8.252;2024-03-23T11:21:54;100384.88;;;8.76;100.00
58243;BME280;50118;53.232;8.252;2024-03-23T11:24:20;100378.41;;;8.88;100.00
58243;BME280;50118;53.232;8.252;2024-03-23T11:26:48;100383.75;;;8.59;100.00
58243;BME280;50118;53.232;8.252;2024-03-23T11:29:17;100380.97;;;8.60;100.00
58243;BME280;50118;53.232;8.252;2024-03-23T11:31:47;100393.66;;;8.86;100.00
58243;BME280;50118;53.232;8.252;2024-03-23T11:34:15;100440.78;;;8.55;100.00
58243;BME280;50118;53.232;8.252;2024-03-23T11:36:41;100461.41;;;6.99;100.00
58243;BME280;50118;53.232;8.252;2024-03-23T11:39:17;100481.22;;;5.15;100.00
58243;BME280;50118;53.232;8.252;2024-03-23T11:41:51;100485.50;;;3.84;100.00
58243;BME280;50118;53.232;8.252;2024-03-23T11:44:21;100483.19;;;3.15;100.00
58243;BME280;50118;53.232;8.252;2024-03-23T11:46:50;100471.16;;;2.86;100.00
58243;BME280;50118;53.232;8.252;2024-03-23T11:49:24;100469.28;;;3.01;100.00
58243;BME280;50118;53.232;8.252;2024-03-23T11:51:52;100454.03;;;3.06;100.00
58243;BME280;50118;53.232;8.252;2024-03-23T11:54:23;100441.41;;;3.11;100.00
58243;BME280;50118;53.232;8.252;2024-03-23T11:57:03;100442.34;;;3.23;100.00
58243;BME280;50118;53.232;8.252;2024-03-23T11:59:41;100433.41;;;3.25;100.00
58243;BME280;50118;53.232;8.252;2024-03-23T12:02:11;100430.25;;;3.46;100.00
58243;BME280;50118;53.232;8.252;2024-03-23T12:04:40;100423.13;;;3.59;100.00
58243;BME280;50118;53.232;8.252;2024-03-23T12:07:16;100422.25;;;3.84;100.00
58243;BME280;50118;53.232;8.252;2024-03-23T12:09:44;100412.94;;;3.91;100.00
58243;BME280;50118;53.232;8.252;2024-03-23T12:12:16;100398.81;;;4.05;100.00
58243;BME280;50118;53.232;8.252;2024-03-23T12:14:45;100404.59;;;3.98;100.00
58243;BME280;50118;53.232;8.252;2024-03-23T12:17:14;100395.25;;;3.93;100.00
58243;BME280;50118;53.232;8.252;2024-03-23T12:19:41;100393.34;;;4.20;100.00
58243;BME280;50118;53.232;8.252;2024-03-23T12:22:08;100383.28;;;5.07;100.00
58243;BME280;50118;53.232;8.252;2024-03-23T12:24:34;100378.91;;;5.85;100.00
58243;BME280;50118;53.232;8.252;2024-03-23T12:27:04;100379.41;;;6.34;100.00
58243;BME280;50118;53.232;8.252;2024-03-23T12:29:33;100385.69;;;6.75;100.00
58243;BME280;50118;53.232;8.252;2024-03-23T12:32:02;100381.97;;;6.78;100.00
58243;BME280;50118;53.232;8.252;2024-03-23T12:34:28;100396.41;;;6.95;100.00
58243;BME280;50118;53.232;8.252;2024-03-23T12:36:54;100395.81;;;6.91;100.00
58243;BME280;50118;53.232;8.252;2024-03-23T12:39:20;100407.91;;;6.84;100.00
58243;BME280;50118;53.232;8.252;2024-03-23T12:41:47;100412.56;;;5.72;100.00
58243;BME280;50118;53.232;8.252;2024-03-23T12:44:13;100413.56;;;5.37;100.00
58243;BME280;50118;53.232;8.252;2024-03-23T12:46:39;100404.19;;;5.55;100.00
58243;BME280;50118;53.232;8.252;2024-03-23T12:49:04;100410.91;;;5.48;100.00
58243;BME280;50118;53.232;8.252;2024-03-23T12:51:30;100420.28;;;5.52;100.00
58243;BME280;50118;53.232;8.252;2024-03-23T12:53:56;100416.41;;;5.22;100.00
58243;BME280;50118;53.232;8.252;2024-03-23T12:56:22;100413.72;;;4.89;100.00
58243;BME280;50118;53.232;8.252;2024-03-23T12:58:47;100401.72;;;4.84;100.00
58243;BME280;50118;53.232;8.252;2024-03-23T13:01:20;100395.19;;;4.66;100.00
58243;BME280;50118;53.232;8.252;2024-03-23T13:03:50;100386.88;;;5.17;100.00
58243;BME280;50118;53.232;8.252;2024-03-23T13:06:18;100389.31;;;5.32;100.00
58243;BME280;50118;53.232;8.252;2024-03-23T13:08:47;100378.72;;;5.66;100.00
58243;BME280;50118;53.232;8.252;2024-03-23T13:11:15;100374.50;;;5.86;100.00
58243;BME280;50118;53.232;8.252;2024-03-23T13:13:41;100378.59;;;5.56;100.00
58243;BME280;50118;53.232;8.252;2024-03-23T13:16:07;100372.25;;;5.58;100.00
58243;BME280;50118;53.232;8.252;2024-03-23T13:18:33;100373.22;;;5.57;100.00
58243;BME280;50118;53.232;8.252;2024-03-23T13:20:59;100369.97;;;5.54;100.00
58243;BME280;50118;53.232;8.252;2024-03-23T13:23:25;100377.44;;;5.92;100.00
58243;BME280;50118;53.232;8.252;2024-03-23T13:25:54;100377.31;;;6.16;100.00
58243;BME280;50118;53.232;8.252;2024-03-23T13:28:24;100358.19;;;6.13;100.00
58243;BME280;50118;53.232;8.252;2024-03-23T13:30:53;100376.44;;;6.27;100.00
58243;BME280;50118;53.232;8.252;2024-03-23T13:33:18;100358.34;;;6.44;100.00
58243;BME280;50118;53.232;8.252;2024-03-23T13:35:54;100354.53;;;6.58;100.00
58243;BME280;50118;53.232;8.252;2024-03-23T13:38:20;100363.03;;;6.61;100.00
58243;BME280;50118;53.232;8.252;2024-03-23T13:43:15;100371.19;;;6.69;100.00
58243;BME280;50118;53.232;8.252;2024-03-23T13:45:41;100373.03;;;6.79;100.00
58243;BME280;50118;53.232;8.252;2024-03-23T13:48:07;100363.50;;;6.66;100.00